ADDS METAR Data INFO
IDs: Format: Raw Decoded Include TAF

Data at: 0607 UTC 25 Jun 2018

PASO 250553Z AUTO 00000KT 10SM SCT075 OVC090 14/08 A2991 RMK AO2 SLP129 T01390078 10161 20139 55002 TSNO
PASO 250453Z AUTO 00000KT 10SM FEW037 OVC070 14/07 A2991 RMK AO2 SLP129 T01440072 TSNO
PASO 250353Z AUTO 04004KT 10SM SCT075 OVC095 15/08 A2991 RMK AO2 SLP129 T01500078 TSNO
PASO 250253Z AUTO 03004KT 10SM OVC080 15/08 A2992 RMK AO2 SLP132 T01500078 58008 TSNO
PASO 250153Z AUTO VRB03KT 10SM OVC090 14/07 A2993 RMK AO2 SLP136 T01440072 TSNO
PASO 250053Z AUTO 01006KT 10SM OVC065 14/08 A2994 RMK AO2 SLP138 T01440078 TSNO
PASO 242353Z AUTO 01007KT 10SM SCT065 BKN100 15/07 A2995 RMK AO2 SLP140 T01500072 10161 20117 58007 TSNO
PASO 242253Z AUTO 01006KT 10SM OVC085 15/08 A2995 RMK AO2 SLP142 T01500078 TSNO
PASO 242153Z AUTO 36004KT 10SM OVC075 14/08 A2996 RMK AO2 SLP146 T01390078 TSNO
PASO 242053Z AUTO 01004KT 10SM OVC075 13/07 A2997 RMK AO2 SLP147 T01280072 58000 TSNO
PASO 241953Z AUTO 03005KT 10SM OVC070 13/06 A2997 RMK AO2 SLP148 T01280061 TSNO
PASO 241853Z AUTO VRB04KT 10SM BKN075 12/06 A2997 RMK AO2 SLP148 T01220056 TSNO
PASO 241753Z AUTO 00000KT 10SM CLR 12/04 A2997 RMK AO2 SLP148 T01220044 10122 20028 58012 TSNO
PASO 241653Z AUTO 01004KT 10SM BKN060 10/07 A2998 RMK AO2 SLP152 T01000067 TSNO
PASO 241553Z AUTO 21003KT 10SM OVC060 06/04 A2999 RMK AO2 SLP156 T00610044 TSNO
PASO 241453Z AUTO 17003KT 10SM BKN060 04/03 A3000 RMK AO2 SLP159 T00390028 58005 TSNO
PASO 241353Z AUTO 00000KT 10SM CLR 03/02 A3002 RMK AO2 SLP164 T00280017 TSNO
PASO 241253Z AUTO 00000KT 10SM CLR 03/02 A3002 RMK AO2 SLP165 T00280017 TSNO
PASO 241153Z AUTO 00000KT 10SM CLR 03/02 A3002 RMK AO2 SLP164 T00330017 10078 20028 58009 TSNO
PASO 241053Z AUTO 00000KT 10SM SCT060 03/02 A3003 RMK AO2 SLP169 T00330017 TSNO
PASO 240953Z AUTO 00000KT 10SM BKN060 04/02 A3004 RMK AO2 SLP172 T00390022 TSNO
PASO 240853Z AUTO 00000KT 10SM CLR 04/02 A3004 RMK AO2 SLP174 T00390022 401220039 57004 TSNO
PASO 240753Z AUTO 00000KT 10SM CLR 05/03 A3005 RMK AO2 SLP175 T00500028 TSNO
PASO 240653Z AUTO 00000KT 10SM CLR 06/04 A3005 RMK AO2 SLP176 T00610039 TSNO
PASO 240553Z AUTO 00000KT 10SM CLR 08/05 A3006 RMK AO2 SLP178 T00780050 10111 20078 57009 TSNO
PASO 240453Z AUTO 02004KT 10SM OVC055 10/05 A3006 RMK AO2 SLP181 T01000050 TSNO
PASO 240353Z AUTO 02005KT 10SM OVC060 10/06 A3007 RMK AO2 SLP184 T01000056 TSNO
PASO 240253Z AUTO 01003KT 10SM OVC055 11/06 A3008 RMK AO2 SLP187 T01060056 57007 TSNO
PASO 240153Z AUTO 03005KT 10SM OVC055 11/06 A3009 RMK AO2 SLP189 T01110061 TSNO
PASO 240053Z AUTO 03006KT 10SM OVC050 11/07 A3010 RMK AO2 SLP191 T01060067 TSNO
PASO 232353Z AUTO VRB03KT 10SM OVC055 11/07 A3010 RMK AO2 SLP193 T01060067 10122 20094 56006 TSNO
PASO 232253Z AUTO 01005KT 10SM OVC050 11/07 A3011 RMK AO2 SLP196 T01060072 TSNO
PASO 232153Z AUTO 02006KT 10SM FEW035 OVC055 11/07 A3011 RMK AO2 SLP196 T01110072 TSNO
PASO 232053Z AUTO 34005KT 10SM FEW034 OVC050 10/06 A3012 RMK AO2 SLP199 T01000061 56005 TSNO
PASO 231953Z AUTO VRB05KT 10SM BKN037 OVC055 10/06 A3012 RMK AO2 SLP200 T01000061 TSNO
PASO 231853Z AUTO VRB04KT 10SM FEW036 OVC055 10/06 A3013 RMK AO2 SLP202 T01000061 TSNO